Time;durP1;ratioP1;P1;durP2;ratioP2;P2;SDS_P1;SDS_P2;PMS_P1;PMS_P2;Temp;Humidity;BMP_temperature;BMP_pressure;BME280_temperature;BME280_humidity;BME280_pressure;Samples;Min_cycle;Max_cycle;Signal;HPM_P1;HPM_P2
2023/01/07 00:01:25;;;;;;;33.83;14.78;;;;;;;7.08;91.09;98962.41;1689867;83;26509;-71
2023/01/07 00:03:53;;;;;;;57.15;23.12;;;;;;;6.98;91.19;98962.48;1691049;82;25587;-71
2023/01/07 00:06:29;;;;;;;58.20;23.07;;;;;;;6.93;91.31;98963.89;1690482;83;27484;-71
2023/01/07 00:08:57;;;;;;;42.33;17.92;;;;;;;6.88;91.31;98966.09;1690481;83;25524;-71
2023/01/07 00:11:27;;;;;;;39.15;17.40;;;;;;;6.84;91.30;98970.46;1690233;83;25504;-71
2023/01/07 00:13:55;;;;;;;54.03;22.07;;;;;;;6.81;91.32;98966.94;1690088;83;26526;-72
2023/01/07 00:16:26;;;;;;;48.38;22.48;;;;;;;6.77;91.32;98969.42;1690362;83;25723;-71
2023/01/07 00:18:55;;;;;;;45.92;20.92;;;;;;;6.76;91.35;98973.22;1718267;83;27468;-72
2023/01/07 00:21:24;;;;;;;42.15;20.10;;;;;;;6.78;91.38;98973.23;1690056;83;25604;-72
2023/01/07 00:24:00;;;;;;;45.03;19.20;;;;;;;6.76;91.15;98969.96;1690494;83;25768;-71
2023/01/07 00:26:31;;;;;;;40.23;18.80;;;;;;;6.71;91.01;98969.19;1690201;83;25799;-71
2023/01/07 00:28:58;;;;;;;;;;;;;;;6.69;91.18;98971.36;1692547;83;25495;-71
2023/01/07 00:31:29;;;;;;;30.05;16.35;;;;;;;6.71;91.36;98967.82;1690028;83;27501;-72
2023/01/07 00:36:26;;;;;;;75.60;32.35;;;;;;;6.71;91.42;98974.63;1690145;83;25495;-71
2023/01/07 00:39:00;;;;;;;51.75;24.45;;;;;;;6.68;91.33;98969.17;1717626;83;25774;-72
2023/01/07 00:41:27;;;;;;;49.60;22.65;;;;;;;6.64;91.15;98970.30;1667037;83;25675;-72
2023/01/07 00:43:55;;;;;;;67.80;30.72;;;;;;;6.61;91.41;98969.50;1690101;83;28595;-71
2023/01/07 00:46:22;;;;;;;31.87;16.70;;;;;;;6.59;91.24;98976.33;1689220;82;25677;-71
2023/01/07 00:48:49;;;;;;;25.43;14.15;;;;;;;6.53;91.42;98979.06;1698078;83;25445;-72
2023/01/07 00:51:17;;;;;;;25.82;14.07;;;;;;;6.51;91.69;98977.15;1698215;83;25858;-71
2023/01/07 00:53:44;;;;;;;52.33;25.00;;;;;;;6.48;91.79;98983.16;1698668;83;25615;-71
2023/01/07 00:56:17;;;;;;;30.50;14.95;;;;;;;6.48;91.94;98985.08;1698670;83;27416;-66
2023/01/07 00:58:44;;;;;;;27.60;14.05;;;;;;;6.47;91.83;98986.16;1698760;83;25668;-72
2023/01/07 01:01:11;;;;;;;28.25;13.95;;;;;;;6.46;91.99;98977.73;1695326;82;25759;-71
2023/01/07 01:03:43;;;;;;;34.43;16.27;;;;;;;6.46;92.12;98984.00;1697888;83;25912;-72
2023/01/07 01:06:15;;;;;;;30.72;15.68;;;;;;;6.47;92.13;98979.34;1671477;83;25731;-72
2023/01/07 01:08:44;;;;;;;41.68;20.23;;;;;;;6.49;92.01;98979.36;1697658;83;27588;-72
2023/01/07 01:11:12;;;;;;;35.45;17.65;;;;;;;6.52;91.82;98990.23;1695284;82;25447;-68
2023/01/07 01:13:40;;;;;;;28.17;14.07;;;;;;;6.53;91.96;98992.67;1696537;82;25643;-71
2023/01/07 01:16:11;;;;;;;34.65;17.65;;;;;;;6.56;92.08;98999.46;1674895;83;25748;-72
2023/01/07 01:18:39;;;;;;;42.35;19.75;;;;;;;6.59;92.00;98988.02;1674406;83;25608;-72
2023/01/07 01:21:08;;;;;;;38.42;17.92;;;;;;;6.63;92.01;98996.45;1699956;83;27605;-72
2023/01/07 01:23:35;;;;;;;32.90;16.73;;;;;;;6.64;92.12;98993.45;1723562;81;25461;-71
2023/01/07 01:26:12;;;;;;;46.15;17.98;;;;;;;6.69;92.04;98996.70;1698005;83;25627;-72
2023/01/07 01:28:38;;;;;;;35.95;15.50;;;;;;;6.72;91.97;98992.59;1698313;83;25728;-72
2023/01/07 01:31:07;;;;;;;35.85;16.02;;;;;;;6.77;91.95;99000.75;1698964;82;25596;-72
2023/01/07 01:33:40;;;;;;;47.05;20.60;;;;;;;6.80;91.72;99000.73;1722165;82;28429;-72
2023/01/07 01:36:12;;;;;;;29.12;18.02;;;;;;;6.82;91.73;99003.43;1675545;83;25853;-72
2023/01/07 01:38:44;;;;;;;24.75;13.85;;;;;;;6.81;91.68;99005.08;1695561;83;25696;-71
2023/01/07 01:41:15;;;;;;;31.42;14.78;;;;;;;6.76;91.62;99004.02;1698150;83;25798;-72
2023/01/07 01:43:51;;;;;;;40.88;17.15;;;;;;;6.70;91.42;99005.13;1698303;83;25490;-72
2023/01/07 01:46:38;;;;;;;32.90;15.48;;;;;;;6.62;91.51;99006.52;1698623;83;25859;-72
2023/01/07 01:49:24;;;;;;;23.77;13.22;;;;;;;6.55;91.56;99011.99;1720448;83;25438;-72
2023/01/07 01:52:18;;;;;;;21.93;11.33;;;;;;;6.48;91.51;99013.67;1693389;83;25439;-71
2023/01/07 01:54:57;;;;;;;19.85;11.68;;;;;;;6.43;91.72;99015.86;1720966;82;25580;-72
2023/01/07 01:57:32;;;;;;;42.53;19.25;;;;;;;6.41;91.84;99016.67;1723510;82;25628;-72
2023/01/07 02:00:04;;;;;;;36.15;18.50;;;;;;;6.45;92.10;99004.13;1721079;82;28045;-72
2023/01/07 02:02:41;;;;;;;34.73;16.65;;;;;;;6.51;92.04;99004.95;1698201;83;25753;-72
2023/01/07 02:05:09;;;;;;;36.08;17.20;;;;;;;6.52;91.77;98994.31;1720870;83;25592;-71
2023/01/07 02:07:35;;;;;;;31.37;17.00;;;;;;;6.55;91.92;98989.67;1674861;83;25622;-73
2023/01/07 02:10:18;;;;;;;40.67;17.95;;;;;;;6.57;91.87;98986.14;1722020;83;25396;-72
2023/01/07 02:12:50;;;;;;;47.20;21.60;;;;;;;6.61;91.85;98984.48;1675615;83;27365;-69
2023/01/07 02:15:24;;;;;;;33.95;16.87;;;;;;;6.64;91.61;98983.92;1720239;83;27209;-69
2023/01/07 02:18:08;;;;;;;22.95;14.28;;;;;;;6.65;91.46;98977.94;1698054;83;25710;-68
2023/01/07 02:20:58;;;;;;;23.90;13.78;;;;;;;6.67;91.45;98980.37;1602283;87;25918;-68
2023/01/07 02:23:56;;;;;;;24.77;16.45;;;;;;;6.67;91.39;98978.45;1632484;87;25621;-69
2023/01/07 02:26:54;;;;;;;23.70;12.68;;;;;;;6.67;91.33;98977.66;1631993;87;27400;-68
2023/01/07 02:30:11;;;;;;;35.28;15.88;;;;;;;6.63;91.23;98986.92;1631835;87;25808;-69
2023/01/07 02:32:48;;;;;;;45.50;20.15;;;;;;;6.62;91.26;98982.01;1632402;87;25809;-68
2023/01/07 02:35:31;;;;;;;43.33;20.32;;;;;;;6.58;91.04;98981.48;1632305;87;25647;-69
2023/01/07 02:38:27;;;;;;;42.35;20.15;;;;;;;6.55;91.04;98983.41;1632566;87;25653;-68
2023/01/07 02:41:04;;;;;;;31.45;16.20;;;;;;;6.53;91.06;98983.68;1610190;87;27625;-72
2023/01/07 02:44:00;;;;;;;24.70;13.55;;;;;;;6.51;90.81;98985.31;1609814;87;25872;-72
2023/01/07 02:46:42;;;;;;;19.42;12.40;;;;;;;6.48;90.58;98991.89;1631984;87;25476;-72
2023/01/07 02:49:12;;;;;;;18.02;10.98;;;;;;;6.51;91.22;98989.41;1632142;87;25968;-72
2023/01/07 02:51:40;;;;;;;40.03;20.10;;;;;;;6.57;91.18;98990.22;1610697;87;25502;-72
2023/01/07 02:54:17;;;;;;;24.43;13.80;;;;;;;6.60;90.92;98990.20;1611110;87;27218;-72
2023/01/07 02:57:27;;;;;;;66.25;28.27;;;;;;;6.67;91.23;98994.79;1609615;87;25609;-73
2023/01/07 03:00:18;;;;;;;23.47;12.15;;;;;;;6.75;91.25;98990.67;1723053;81;25675;-72
2023/01/07 03:03:24;;;;;;;25.02;14.25;;;;;;;6.75;90.88;98992.86;1693597;82;25721;-73
2023/01/07 03:06:10;;;;;;;24.15;12.50;;;;;;;6.73;90.80;98992.31;1720277;83;25585;-72
2023/01/07 03:09:05;;;;;;;29.18;19.32;;;;;;;6.71;90.76;98995.06;1693896;82;27260;-72
2023/01/07 03:11:41;;;;;;;29.48;18.00;;;;;;;6.64;90.83;98991.27;1720757;82;25429;-72
2023/01/07 03:14:18;;;;;;;22.10;13.35;;;;;;;6.58;90.92;98993.20;1698367;83;25662;-72
2023/01/07 03:16:54;;;;;;;16.52;10.90;;;;;;;6.53;91.15;98990.48;1720707;82;26484;-73
2023/01/07 03:19:31;;;;;;;19.12;10.55;;;;;;;6.48;91.35;98983.16;1698181;83;25604;-72
2023/01/07 03:22:01;;;;;;;22.30;12.05;;;;;;;6.49;91.57;98991.61;1698580;83;27500;-74
2023/01/07 03:24:30;;;;;;;20.72;12.47;;;;;;;6.53;91.48;98994.57;1698362;83;25691;-74
2023/01/07 03:26:59;;;;;;;23.10;12.47;;;;;;;6.56;91.46;98989.14;1698004;83;25667;-74
2023/01/07 03:29:27;;;;;;;31.73;15.38;;;;;;;6.59;91.45;98984.50;1698233;83;25651;-74
2023/01/07 03:32:08;;;;;;;34.38;16.85;;;;;;;6.61;91.35;98985.02;1692700;82;25800;-74
2023/01/07 03:34:36;;;;;;;24.55;15.78;;;;;;;6.65;91.30;98984.74;1720964;83;28353;-73
2023/01/07 03:37:08;;;;;;;24.92;14.35;;;;;;;6.70;91.30;98986.06;1697897;83;25736;-69
2023/01/07 03:39:37;;;;;;;23.40;14.90;;;;;;;6.74;91.16;98990.41;1697800;83;25553;-69
2023/01/07 03:44:51;;;;;;;27.60;14.10;;;;;;;6.77;91.06;98974.30;1702555;83;25672;-72
2023/01/07 03:47:18;;;;;;;23.02;13.53;;;;;;;6.77;91.07;98978.39;1687715;84;27466;-69
2023/01/07 03:49:45;;;;;;;19.52;10.98;;;;;;;6.79;91.01;98979.47;1715314;83;25600;-73
2023/01/07 03:52:11;;;;;;;14.75;9.53;;;;;;;6.81;91.03;98979.20;1692222;83;25624;-70
2023/01/07 03:54:37;;;;;;;14.78;8.48;;;;;;;6.81;91.05;98982.74;1663531;83;25700;-71
2023/01/07 03:57:03;;;;;;;17.73;10.18;;;;;;;6.76;91.06;98979.50;1662540;83;25524;-69
2023/01/07 03:59:29;;;;;;;17.55;11.08;;;;;;;6.71;90.91;98978.15;1662603;83;27370;-66
2023/01/07 04:01:55;;;;;;;19.23;10.40;;;;;;;6.63;90.79;98972.77;1664206;83;25733;-70
2023/01/07 04:04:22;;;;;;;19.60;11.75;;;;;;;6.56;90.90;98976.88;1697159;82;25560;-71
2023/01/07 04:06:48;;;;;;;19.50;12.35;;;;;;;6.50;90.86;98976.06;1714352;82;25733;-72
2023/01/07 04:09:17;;;;;;;24.98;13.85;;;;;;;6.47;90.89;98983.43;1661471;84;25760;-70
2023/01/07 04:11:42;;;;;;;20.25;12.37;;;;;;;6.43;90.73;98979.64;1684671;83;26003;-71
2023/01/07 04:14:08;;;;;;;18.90;10.58;;;;;;;6.32;90.04;98985.66;1663627;84;25483;-71
2023/01/07 04:16:35;;;;;;;20.00;11.45;;;;;;;6.23;90.28;98983.53;1684852;84;25648;-71
2023/01/07 04:19:03;;;;;;;26.20;15.30;;;;;;;6.24;90.51;98985.69;1685984;84;26072;-70
2023/01/07 04:21:29;;;;;;;24.37;14.75;;;;;;;6.24;90.70;98988.41;1685788;84;25434;-71
2023/01/07 04:23:55;;;;;;;24.95;14.78;;;;;;;6.24;90.67;98987.87;1685741;84;27478;-68
2023/01/07 04:26:21;;;;;;;21.75;13.83;;;;;;;6.26;90.95;98987.59;1662613;84;25494;-71
2023/01/07 04:28:47;;;;;;;20.12;12.18;;;;;;;6.30;90.94;98989.23;1681893;84;25718;-71
2023/01/07 04:31:14;;;;;;;19.10;12.33;;;;;;;6.34;90.99;98990.30;1661376;84;25794;-71
2023/01/07 04:33:40;;;;;;;20.62;13.60;;;;;;;6.38;90.98;98982.66;1639424;84;25744;-71
2023/01/07 04:36:07;;;;;;;21.37;13.85;;;;;;;6.42;90.67;98986.19;1641904;84;27335;-71
2023/01/07 04:38:33;;;;;;;20.17;12.93;;;;;;;6.45;90.98;98985.64;1662591;84;25758;-70
2023/01/07 04:40:59;;;;;;;16.52;10.65;;;;;;;6.48;91.09;98979.63;1662647;84;25712;-70
2023/01/07 04:43:26;;;;;;;17.67;11.85;;;;;;;6.47;90.85;98981.53;1662864;84;25603;-71
2023/01/07 04:45:52;;;;;;;18.50;12.18;;;;;;;6.45;90.85;98980.98;1642330;84;25744;-70
2023/01/07 04:48:18;;;;;;;18.15;12.63;;;;;;;6.45;90.91;98976.11;1665988;83;27440;-70
2023/01/07 04:50:47;;;;;;;18.95;12.03;;;;;;;6.46;90.96;98973.64;1692968;83;25898;-70
2023/01/07 04:53:13;;;;;;;20.05;14.43;;;;;;;6.46;90.88;98981.27;1669240;83;25787;-70
2023/01/07 04:55:39;;;;;;;20.65;12.68;;;;;;;6.49;90.65;98979.89;1669409;83;25692;-69
2023/01/07 04:58:05;;;;;;;19.98;12.63;;;;;;;6.47;90.47;98990.23;1669484;83;25418;-66
2023/01/07 05:00:31;;;;;;;18.27;11.93;;;;;;;6.50;90.67;98989.14;1668497;83;27586;-69
2023/01/07 05:02:58;;;;;;;18.23;11.60;;;;;;;6.51;90.54;98992.12;1669861;83;25723;-70
2023/01/07 05:05:24;;;;;;;19.62;12.00;;;;;;;6.54;90.34;98994.86;1691637;83;26450;-69
2023/01/07 05:07:50;;;;;;;17.92;11.40;;;;;;;6.57;90.86;98988.03;1669672;83;25818;-69
2023/01/07 05:10:16;;;;;;;19.60;12.28;;;;;;;6.62;90.44;98994.83;1669845;83;25690;-66
2023/01/07 05:12:42;;;;;;;22.25;12.45;;;;;;;6.63;90.75;98988.28;1692852;83;27456;-69
2023/01/07 05:15:10;;;;;;;19.37;11.45;;;;;;;6.70;90.50;98990.69;1691666;83;25701;-68
2023/01/07 05:17:36;;;;;;;16.73;10.80;;;;;;;6.62;89.68;98999.71;1693620;83;25592;-70
2023/01/07 05:20:03;;;;;;;17.98;11.80;;;;;;;6.59;90.08;98999.47;1692739;83;26596;-70
2023/01/07 05:22:29;;;;;;;19.60;13.05;;;;;;;6.54;89.65;98998.95;1669446;83;25457;-68
2023/01/07 05:24:55;;;;;;;22.87;14.93;;;;;;;6.44;89.66;99003.04;1693213;83;27512;-65
2023/01/07 05:27:22;;;;;;;23.67;14.70;;;;;;;6.42;90.06;99007.41;1669659;83;25685;-67
2023/01/07 05:29:48;;;;;;;26.10;16.32;;;;;;;6.38;90.16;99001.72;1693073;83;26100;-67
2023/01/07 05:32:14;;;;;;;23.07;15.20;;;;;;;6.31;90.19;98997.66;1668655;83;25556;-70
2023/01/07 05:34:40;;;;;;;25.17;15.05;;;;;;;6.30;90.46;98998.75;1693376;83;25480;-69
2023/01/07 05:37:06;;;;;;;24.63;14.95;;;;;;;6.30;90.60;99001.48;1691457;83;27417;-70
2023/01/07 05:39:32;;;;;;;24.92;15.32;;;;;;;6.32;90.75;98998.73;1693042;83;25866;-69
2023/01/07 05:41:58;;;;;;;15.93;10.23;;;;;;;6.32;91.10;98990.57;1668427;83;25510;-69
2023/01/07 05:44:25;;;;;;;19.82;10.98;;;;;;;6.34;91.78;98995.73;1669428;83;27787;-68
2023/01/07 05:46:51;;;;;;;19.82;12.68;;;;;;;6.35;91.90;98991.92;1693245;83;25601;-69
2023/01/07 05:49:17;;;;;;;21.85;11.38;;;;;;;6.38;92.14;99000.36;1692550;83;27417;-69
2023/01/07 05:51:43;;;;;;;18.25;10.45;;;;;;;6.40;92.26;98999.52;1646693;83;25791;-69
2023/01/07 05:54:10;;;;;;;19.98;12.25;;;;;;;6.44;92.43;98998.95;1656562;84;26402;-69
2023/01/07 05:56:36;;;;;;;17.48;10.10;;;;;;;6.45;92.29;98998.69;1674131;84;25853;-69
2023/01/07 05:59:02;;;;;;;37.58;15.88;;;;;;;6.47;92.41;98996.50;1652758;85;25637;-69
2023/01/07 06:01:28;;;;;;;33.53;15.90;;;;;;;6.48;92.31;98998.70;1675222;85;27220;-68
2023/01/07 06:03:55;;;;;;;43.78;18.35;;;;;;;6.51;92.11;99003.02;1675269;85;26077;-69
2023/01/07 06:06:21;;;;;;;35.03;16.90;;;;;;;6.55;92.04;99001.10;1652445;85;25464;-69
2023/01/07 06:08:47;;;;;;;30.37;14.40;;;;;;;6.57;91.84;98997.03;1652409;85;25737;-69
2023/01/07 06:11:14;;;;;;;25.45;13.95;;;;;;;6.60;91.84;98995.11;1652658;85;25751;-70
2023/01/07 06:13:40;;;;;;;35.65;15.72;;;;;;;6.62;91.87;98993.47;1651663;85;28274;-70
2023/01/07 06:16:09;;;;;;;23.92;13.88;;;;;;;6.65;91.88;98989.63;1673872;85;25808;-69
2023/01/07 06:18:36;;;;;;;22.73;14.23;;;;;;;6.67;91.75;98990.70;1621139;85;25717;-70
2023/01/07 06:21:02;;;;;;;22.75;13.83;;;;;;;6.65;91.77;98985.53;1652409;85;25770;-70
2023/01/07 06:23:30;;;;;;;22.90;12.75;;;;;;;6.63;91.67;98987.75;1675382;85;25732;-65
2023/01/07 06:25:56;;;;;;;42.20;19.12;;;;;;;6.67;91.62;98992.63;1652712;85;27660;-66
2023/01/07 06:28:22;;;;;;;47.80;20.25;;;;;;;6.64;91.18;98996.70;1643074;85;25712;-67
2023/01/07 06:30:49;;;;;;;28.12;13.60;;;;;;;6.60;90.95;99005.17;1675461;85;25770;-64
2023/01/07 06:33:16;;;;;;;36.60;20.17;;;;;;;6.61;91.00;99002.17;1651456;85;25756;-67
2023/01/07 06:35:45;;;;;;;32.08;19.80;;;;;;;6.63;91.23;99003.26;1652349;85;25744;-66
2023/01/07 06:38:11;;;;;;;32.30;18.20;;;;;;;6.62;91.21;99000.28;1687154;84;27348;-68
2023/01/07 06:40:37;;;;;;;34.43;19.45;;;;;;;6.65;91.26;98995.07;1675087;85;27344;-65
2023/01/07 06:43:03;;;;;;;31.62;17.20;;;;;;;6.59;90.92;99001.63;1652787;85;25459;-65
2023/01/07 06:45:29;;;;;;;37.53;23.30;;;;;;;6.58;90.88;98998.64;1674514;84;25814;-65
2023/01/07 06:47:57;;;;;;;40.33;25.43;;;;;;;6.52;90.88;99003.30;1678658;82;25498;-65
2023/01/07 06:50:24;;;;;;;21.87;14.75;;;;;;;6.45;90.91;98995.16;1695007;82;27519;-67
2023/01/07 06:52:50;;;;;;;23.95;14.23;;;;;;;6.42;90.97;98997.88;1719423;82;25955;-64
2023/01/07 06:55:16;;;;;;;44.03;21.40;;;;;;;6.39;91.03;99001.98;1719252;82;25751;-64
2023/01/07 06:57:43;;;;;;;47.10;23.22;;;;;;;6.35;90.63;99004.99;1740314;82;26548;-69
2023/01/07 07:00:11;;;;;;;45.00;26.97;;;;;;;6.36;90.98;99000.38;1718930;82;25768;-69
2023/01/07 07:02:37;;;;;;;43.00;27.15;;;;;;;6.29;90.13;99003.37;1719247;82;27263;-69
2023/01/07 07:05:04;;;;;;;42.58;26.33;;;;;;;6.14;89.58;99003.66;1695244;82;25642;-69
2023/01/07 07:07:31;;;;;;;43.73;25.05;;;;;;;6.07;90.09;99008.59;1694219;82;25547;-69
2023/01/07 07:09:58;;;;;;;42.70;27.20;;;;;;;6.05;89.97;99008.60;1671249;82;25715;-68
2023/01/07 07:12:24;;;;;;;46.50;27.65;;;;;;;6.01;89.98;99005.03;1694025;82;25634;-69
2023/01/07 07:14:50;;;;;;;151.80;57.38;;;;;;;5.96;90.27;99021.92;1717976;82;27421;-70
2023/01/07 07:17:16;;;;;;;273.73;87.40;;;;;;;6.00;90.75;99021.10;1719106;82;25793;-69
2023/01/07 07:19:42;;;;;;;118.80;51.55;;;;;;;5.87;89.82;99023.82;1740386;82;25749;-70
2023/01/07 07:22:09;;;;;;;99.10;49.30;;;;;;;5.72;90.32;99025.19;1695622;82;25866;-69
2023/01/07 07:24:35;;;;;;;102.87;55.10;;;;;;;5.72;90.82;99022.46;1719340;82;25709;-68
2023/01/07 07:27:02;;;;;;;87.85;46.65;;;;;;;5.73;90.99;99026.27;1695307;82;27319;-70
2023/01/07 07:29:28;;;;;;;73.45;39.73;;;;;;;5.78;91.20;99024.92;1690397;82;26156;-69
2023/01/07 07:31:55;;;;;;;55.43;32.33;;;;;;;5.83;91.05;99029.55;1671943;82;25473;-70
2023/01/07 07:34:21;;;;;;;55.55;31.27;;;;;;;5.86;90.70;99031.72;1719087;82;25677;-70
2023/01/07 07:36:47;;;;;;;59.85;34.83;;;;;;;5.83;90.53;99029.55;1667558;82;25476;-70
2023/01/07 07:39:14;;;;;;;51.30;29.23;;;;;;;5.83;90.58;99028.72;1719013;82;27549;-69
2023/01/07 07:41:40;;;;;;;44.63;24.57;;;;;;;5.78;90.41;99033.61;1695139;82;25714;-70
2023/01/07 07:44:06;;;;;;;39.45;23.50;;;;;;;5.78;90.47;99029.53;1672014;82;25632;-66
2023/01/07 07:46:32;;;;;;;42.00;23.95;;;;;;;5.81;90.76;99029.55;1739994;82;25797;-68
2023/01/07 07:48:59;;;;;;;42.17;24.47;;;;;;;5.90;91.07;99037.41;1688409;83;25686;-69
2023/01/07 07:51:25;;;;;;;47.35;27.45;;;;;;;5.97;91.12;99038.50;1677832;83;27228;-65
2023/01/07 07:53:51;;;;;;;46.50;27.48;;;;;;;6.03;91.13;99025.99;1704045;83;25751;-68
2023/01/07 07:56:17;;;;;;;46.02;28.00;;;;;;;6.14;91.14;99039.05;1703578;83;25669;-67
2023/01/07 07:58:44;;;;;;;48.63;28.57;;;;;;;6.19;90.89;99034.14;1681694;83;27750;-66
2023/01/07 08:01:10;;;;;;;49.88;27.82;;;;;;;6.25;90.65;99035.77;1717220;83;25570;-66
2023/01/07 08:03:36;;;;;;;48.45;27.93;;;;;;;6.27;90.48;99028.14;1680296;83;28176;-67
2023/01/07 08:06:04;;;;;;;43.20;27.75;;;;;;;6.33;90.71;99028.94;1692028;83;25796;-66
2023/01/07 08:08:30;;;;;;;42.98;26.87;;;;;;;6.43;90.89;99027.28;1680532;83;25514;-66
2023/01/07 08:10:57;;;;;;;36.03;20.77;;;;;;;6.53;90.87;99020.44;1716974;83;26060;-65
2023/01/07 08:13:23;;;;;;;32.63;17.48;;;;;;;6.62;90.60;99017.98;1680133;83;25764;-68
2023/01/07 08:15:49;;;;;;;24.30;13.60;;;;;;;6.70;90.80;99025.55;1681849;83;27446;-65
2023/01/07 08:18:15;;;;;;;25.32;13.03;;;;;;;6.81;90.79;99022.24;1680088;83;25751;-66
2023/01/07 08:20:42;;;;;;;17.67;11.08;;;;;;;6.99;90.89;99017.23;1680485;83;25519;-65
2023/01/07 08:23:08;;;;;;;19.07;12.25;;;;;;;7.17;90.44;99021.79;1681275;83;25421;-65
2023/01/07 08:25:35;;;;;;;19.20;11.25;;;;;;;7.32;90.02;99018.97;1670066;83;25702;-68
2023/01/07 08:28:03;;;;;;;16.80;10.65;;;;;;;7.49;89.84;99023.21;1704979;83;29543;-71
2023/01/07 08:30:30;;;;;;;17.25;10.93;;;;;;;7.68;89.64;99019.23;1669846;83;25761;-69
2023/01/07 08:32:57;;;;;;;18.12;10.95;;;;;;;7.91;89.35;99012.76;1692383;83;25606;-70
2023/01/07 08:35:24;;;;;;;15.90;10.63;;;;;;;8.07;88.65;99022.99;1703547;83;26709;-71
2023/01/07 08:37:50;;;;;;;16.48;10.13;;;;;;;8.22;87.74;99019.30;1704915;83;25589;-71
2023/01/07 08:40:16;;;;;;;17.37;11.55;;;;;;;8.38;87.95;99015.03;1678870;83;27475;-71
2023/01/07 08:42:42;;;;;;;15.05;9.13;;;;;;;8.53;87.69;99020.88;1669932;83;25776;-71
2023/01/07 08:45:10;;;;;;;15.93;10.53;;;;;;;8.66;87.12;99019.37;1717469;83;25578;-71
2023/01/07 08:47:37;;;;;;;17.82;11.45;;;;;;;8.82;87.03;99017.27;1704999;83;26244;-71
2023/01/07 08:50:04;;;;;;;17.87;12.20;;;;;;;8.95;86.10;99017.66;1716324;82;25408;-71
2023/01/07 08:52:31;;;;;;;16.15;9.98;;;;;;;9.03;85.89;99015.08;1695188;82;27272;-72
2023/01/07 08:54:57;;;;;;;18.73;12.25;;;;;;;9.17;85.42;99011.61;1693883;82;25629;-72
2023/01/07 08:57:23;;;;;;;18.23;11.60;;;;;;;9.31;85.44;99017.15;1671908;82;25817;-72
2023/01/07 08:59:49;;;;;;;18.20;11.48;;;;;;;9.53;85.39;99020.63;1719240;82;25731;-72
2023/01/07 09:02:18;;;;;;;18.45;10.28;;;;;;;9.72;84.66;99018.42;1695554;82;25444;-71
2023/01/07 09:04:44;;;;;;;17.77;11.22;;;;;;;9.84;83.89;99016.58;1718724;82;28146;-69
2023/01/07 09:07:11;;;;;;;20.40;13.38;;;;;;;9.92;83.81;99013.71;1691618;82;26450;-70
2023/01/07 09:09:37;;;;;;;19.45;12.10;;;;;;;9.93;82.52;99018.64;1719275;82;25500;-73
2023/01/07 09:12:05;;;;;;;22.15;11.80;;;;;;;9.90;82.93;99019.48;1695148;82;25745;-68
2023/01/07 09:14:32;;;;;;;16.23;11.25;;;;;;;9.84;81.86;99012.47;1693963;82;25725;-68
2023/01/07 09:16:58;;;;;;;18.27;12.47;;;;;;;9.81;82.04;99020.48;1690516;82;27276;-68
2023/01/07 09:19:25;;;;;;;20.68;13.18;;;;;;;9.74;81.82;99012.66;1671893;82;26579;-68
2023/01/07 09:21:51;;;;;;;90.45;40.67;;;;;;;9.70;81.96;99012.42;1718877;82;25653;-73
2023/01/07 09:24:18;;;;;;;900.28;396.95;;;;;;;9.69;81.42;99009.44;1672053;82;25529;-72
2023/01/07 09:26:44;;;;;;;317.20;108.32;;;;;;;9.73;81.87;99011.03;1695277;82;25733;-69
2023/01/07 09:29:10;;;;;;;288.73;74.27;;;;;;;9.80;81.36;99014.19;1694920;82;27428;-67
2023/01/07 09:31:36;;;;;;;56.40;21.70;;;;;;;9.82;80.65;99008.42;1695221;82;25619;-72
2023/01/07 09:34:03;;;;;;;200.70;52.70;;;;;;;9.93;80.33;99003.59;1719205;82;25511;-69
2023/01/07 09:36:29;;;;;;;82.42;26.23;;;;;;;10.08;80.53;99007.42;1695384;82;25629;-66
2023/01/07 09:38:56;;;;;;;129.38;36.17;;;;;;;10.36;80.48;99012.91;1740079;82;25587;-66
2023/01/07 09:41:45;;;;;;;55.38;19.87;;;;;;;10.62;79.95;99010.27;1671886;82;27438;-68
2023/01/07 09:44:39;;;;;;;64.40;22.10;;;;;;;10.80;78.28;99003.05;1718557;82;25506;-71
2023/01/07 09:47:08;;;;;;;47.73;17.25;;;;;;;10.91;78.02;99006.38;1718789;82;25744;-67
2023/01/07 09:49:35;;;;;;;121.00;34.70;;;;;;;11.03;76.60;98998.41;1715369;82;25761;-77
2023/01/07 09:52:07;;;;;;;31.42;14.30;;;;;;;11.13;77.86;98998.75;1731991;82;25464;-78
2023/01/07 09:54:36;;;;;;;46.35;27.70;;;;;;;11.25;76.00;98987.78;1711324;82;27171;-78
2023/01/07 09:57:04;;;;;;;54.25;20.30;;;;;;;11.37;75.07;98995.48;1687531;82;25832;-77
2023/01/07 09:59:30;;;;;;;82.37;26.80;;;;;;;11.47;75.75;98995.23;1736985;82;25458;-77
2023/01/07 10:02:26;;;;;;;45.60;16.80;;;;;;;11.61;74.29;98997.92;1648092;82;27943;-77
2023/01/07 10:05:22;;;;;;;37.03;16.50;;;;;;;11.77;73.60;98993.40;1596310;88;25489;-76
2023/01/07 10:08:22;;;;;;;49.30;19.45;;;;;;;12.07;73.48;98989.66;1607560;88;28011;-76
2023/01/07 10:10:54;;;;;;;55.12;19.98;;;;;;;12.44;74.05;98984.00;1628723;88;25756;-76
2023/01/07 10:13:34;;;;;;;48.60;19.50;;;;;;;12.77;71.99;98986.34;1628204;88;25764;-76
2023/01/07 10:16:15;;;;;;;28.52;12.50;;;;;;;12.95;70.74;98986.94;1628933;88;26316;-77
2023/01/07 10:19:04;;;;;;;21.65;13.15;;;;;;;13.16;68.70;98986.53;1629146;88;33600;-77
2023/01/07 10:21:48;;;;;;;18.60;10.03;;;;;;;13.35;69.20;98978.52;1607023;87;27463;-76
2023/01/07 10:24:30;;;;;;;22.07;12.30;;;;;;;13.53;66.17;98982.69;1606314;88;25758;-77
2023/01/07 10:27:08;;;;;;;37.60;15.83;;;;;;;13.76;68.12;98972.26;1587198;88;25517;-66
2023/01/07 10:29:47;;;;;;;37.23;15.15;;;;;;;14.24;68.95;98970.08;1607388;88;25673;-69
2023/01/07 10:32:18;;;;;;;47.38;18.67;;;;;;;14.74;65.22;98978.17;1607384;88;25790;-66
2023/01/07 10:34:49;;;;;;;50.17;22.02;;;;;;;14.93;64.54;98966.73;1591083;82;27353;-67
2023/01/07 10:37:36;;;;;;;22.87;11.48;;;;;;;15.17;65.49;98965.84;1659513;82;25704;-67
2023/01/07 10:40:38;;;;;;;16.32;9.85;;;;;;;15.40;63.64;98963.52;1730867;82;25617;-69
2023/01/07 10:43:28;;;;;;;12.35;7.58;;;;;;;15.51;63.29;98969.42;1665400;85;25625;-66
2023/01/07 10:46:28;;;;;;;12.00;6.95;;;;;;;15.75;60.47;98963.73;1525490;92;25573;-66
2023/01/07 10:49:33;;;;;;;9.60;7.28;;;;;;;15.73;57.95;98960.53;1543479;91;27527;-66
2023/01/07 10:52:29;;;;;;;32.08;14.60;;;;;;;15.55;60.36;98955.76;1536157;92;25813;-66
2023/01/07 10:55:20;;;;;;;25.08;14.28;;;;;;;15.87;61.50;98945.02;1525030;92;25805;-67
2023/01/07 10:57:47;;;;;;;8.95;6.33;;;;;;;16.08;58.94;98951.63;1544752;92;25810;-70
2023/01/07 11:00:17;;;;;;;15.38;11.43;;;;;;;16.13;56.23;98940.35;1525466;92;26144;-67
2023/01/07 11:02:58;;;;;;;8.83;5.70;;;;;;;15.86;55.62;98955.83;1544772;92;27479;-68
2023/01/07 11:05:30;;;;;;;14.28;8.28;;;;;;;15.64;55.66;98936.33;1525122;92;25779;-69
2023/01/07 11:08:00;;;;;;;7.40;5.50;;;;;;;15.54;57.66;98941.69;1525541;92;25678;-66
2023/01/07 11:10:34;;;;;;;8.10;6.17;;;;;;;15.48;55.28;98937.53;1525459;92;25830;-67
2023/01/07 11:13:17;;;;;;;7.87;6.00;;;;;;;15.45;55.96;98927.98;1525306;92;25616;-66
2023/01/07 11:16:06;;;;;;;13.60;9.55;;;;;;;15.41;55.63;98927.05;1545095;92;27431;-74
2023/01/07 11:19:02;;;;;;;11.50;8.63;;;;;;;15.58;54.74;98937.69;1545344;90;25794;-74
2023/01/07 11:21:39;;;;;;;13.22;7.95;;;;;;;15.65;54.23;98932.41;1657808;86;25829;-75
2023/01/07 11:24:29;;;;;;;17.67;9.45;;;;;;;15.66;53.97;98929.30;1615091;86;26635;-74
2023/01/07 11:27:14;;;;;;;21.47;10.73;;;;;;;15.54;53.89;98919.59;1660386;86;25514;-74
2023/01/07 11:30:18;;;;;;;20.10;10.53;;;;;;;15.58;53.75;98922.49;1620820;83;27264;-74
2023/01/07 11:33:01;;;;;;;9.00;5.55;;;;;;;15.61;54.67;98912.96;1673161;83;25607;-75
2023/01/07 11:35:28;;;;;;;7.10;5.00;;;;;;;15.64;53.75;98911.47;1692552;83;25687;-75
2023/01/07 11:37:57;;;;;;;11.25;6.42;;;;;;;15.66;54.82;98915.48;1692495;83;26107;-75
2023/01/07 11:40:27;;;;;;;6.75;6.00;;;;;;;15.61;53.20;98910.77;1692026;83;25647;-75
2023/01/07 11:42:58;;;;;;;11.55;7.12;;;;;;;15.47;52.66;98904.16;1670314;83;27201;-76
2023/01/07 11:45:37;;;;;;;8.38;5.85;;;;;;;15.52;53.56;98902.58;1670035;83;25662;-76
2023/01/07 11:48:12;;;;;;;6.28;4.80;;;;;;;15.67;54.74;98902.49;1692749;83;25646;-70
2023/01/07 11:50:46;;;;;;;9.18;4.95;;;;;;;15.82;52.22;98896.87;1694912;83;26160;-66